PAGA

Edward G Pitka Sr Airport

Galena, Alaska, USA
PAGA 200901Z 2009/2106 00000KT P6SM SCT020 FM201200 00000KT P6SM -SN BKN020
Issued Valid From Valid To
Jan-20 @ 09:01 UTC
(2 hours ago)
Jan-20 @ 09:00 UTC
(2 hours ago)
Jan-21 @ 06:00 UTC
(in 19 hours)
Jan-20 @ 09:00 to Jan-20 @ 12:00
PAGA 200901Z 2009/2106 00000KT P6SM SCT020
Visibility Clouds
Greater than 6 miles
  • Scattered at 2,000' AGL
From Jan-20 @ 12:00 to Jan-21 @ 06:00
FM201200 00000KT P6SM -SN BKN020
Visibility Clouds Conditions
Greater than 6 miles
  • Broken at 2,000' AGL
  • Light Snow
PAGA 200901Z 2009/2106 00000KT P6SM SCT020 FM201200 00000KT P6SM -SN BKN020
Issued Jan-20 @ 09:01 UTC
(2 hours ago)
Valid From Jan-20 @ 09:00 UTC
(2 hours ago)
Valid To Jan-21 @ 06:00 UTC
(in 19 hours)
Jan-20 @ 09:00 - Jan-20 @ 12:00
Clouds
  • Scattered at 2,000' AGL
From Jan-20 @ 12:00 - Jan-21 @ 06:00
Clouds
  • Broken at 2,000' AGL
Conditions
  • Light Snow